sensor_id;sensor_type;location;lat;lon;timestamp;P1;durP1;ratioP1;P2;durP2;ratioP2
20729;SDS011;10526;50.850;12.928;2024-01-27T00:01:58;7.75;;;2.33;;
20729;SDS011;10526;50.850;12.928;2024-01-27T00:06:20;7.50;;;2.08;;
20729;SDS011;10526;50.850;12.928;2024-01-27T00:10:42;2.70;;;1.50;;
20729;SDS011;10526;50.850;12.928;2024-01-27T00:15:07;8.63;;;1.90;;
20729;SDS011;10526;50.850;12.928;2024-01-27T00:19:30;7.25;;;1.70;;
20729;SDS011;10526;50.850;12.928;2024-01-27T00:23:52;10.63;;;2.05;;
20729;SDS011;10526;50.850;12.928;2024-01-27T00:28:14;5.93;;;1.73;;
20729;SDS011;10526;50.850;12.928;2024-01-27T00:32:36;10.50;;;2.25;;
20729;SDS011;10526;50.850;12.928;2024-01-27T00:36:58;6.32;;;1.92;;
20729;SDS011;10526;50.850;12.928;2024-01-27T00:41:20;7.15;;;1.35;;
20729;SDS011;10526;50.850;12.928;2024-01-27T00:45:42;11.07;;;2.00;;
20729;SDS011;10526;50.850;12.928;2024-01-27T00:50:04;10.80;;;2.33;;
20729;SDS011;10526;50.850;12.928;2024-01-27T00:54:29;8.98;;;1.65;;
20729;SDS011;10526;50.850;12.928;2024-01-27T00:58:51;12.93;;;2.42;;
20729;SDS011;10526;50.850;12.928;2024-01-27T01:03:13;15.18;;;2.25;;
20729;SDS011;10526;50.850;12.928;2024-01-27T01:07:35;10.60;;;2.17;;
20729;SDS011;10526;50.850;12.928;2024-01-27T01:11:57;17.98;;;2.03;;
20729;SDS011;10526;50.850;12.928;2024-01-27T01:16:19;13.02;;;2.10;;
20729;SDS011;10526;50.850;12.928;2024-01-27T01:20:41;10.90;;;1.85;;
20729;SDS011;10526;50.850;12.928;2024-01-27T01:25:03;7.10;;;2.00;;
20729;SDS011;10526;50.850;12.928;2024-01-27T01:29:26;11.13;;;2.40;;
20729;SDS011;10526;50.850;12.928;2024-01-27T01:33:48;15.05;;;2.38;;
20729;SDS011;10526;50.850;12.928;2024-01-27T01:38:10;13.50;;;2.00;;
20729;SDS011;10526;50.850;12.928;2024-01-27T01:42:32;8.88;;;1.92;;
20729;SDS011;10526;50.850;12.928;2024-01-27T01:46:54;8.70;;;2.15;;
20729;SDS011;10526;50.850;12.928;2024-01-27T01:51:16;18.48;;;3.05;;
20729;SDS011;10526;50.850;12.928;2024-01-27T01:55:39;14.38;;;2.22;;
20729;SDS011;10526;50.850;12.928;2024-01-27T02:00:01;14.38;;;2.38;;
20729;SDS011;10526;50.850;12.928;2024-01-27T02:04:41;16.45;;;2.35;;
20729;SDS011;10526;50.850;12.928;2024-01-27T02:09:04;11.93;;;2.25;;
20729;SDS011;10526;50.850;12.928;2024-01-27T02:13:26;9.00;;;2.15;;
20729;SDS011;10526;50.850;12.928;2024-01-27T02:17:48;22.35;;;2.80;;
20729;SDS011;10526;50.850;12.928;2024-01-27T02:22:10;11.20;;;2.10;;
20729;SDS011;10526;50.850;12.928;2024-01-27T02:26:32;9.93;;;1.92;;
20729;SDS011;10526;50.850;12.928;2024-01-27T02:30:54;11.60;;;2.05;;
20729;SDS011;10526;50.850;12.928;2024-01-27T02:35:16;10.00;;;1.73;;
20729;SDS011;10526;50.850;12.928;2024-01-27T02:39:38;11.43;;;3.17;;
20729;SDS011;10526;50.850;12.928;2024-01-27T02:44:01;14.02;;;2.45;;
20729;SDS011;10526;50.850;12.928;2024-01-27T02:48:23;13.85;;;2.40;;
20729;SDS011;10526;50.850;12.928;2024-01-27T02:52:45;13.52;;;2.70;;
20729;SDS011;10526;50.850;12.928;2024-01-27T02:57:07;12.15;;;2.45;;
20729;SDS011;10526;50.850;12.928;2024-01-27T03:01:29;8.13;;;1.92;;
20729;SDS011;10526;50.850;12.928;2024-01-27T03:05:51;14.10;;;2.55;;
20729;SDS011;10526;50.850;12.928;2024-01-27T03:10:13;10.98;;;2.60;;
20729;SDS011;10526;50.850;12.928;2024-01-27T03:14:35;19.52;;;3.20;;
20729;SDS011;10526;50.850;12.928;2024-01-27T03:18:57;10.88;;;2.75;;
20729;SDS011;10526;50.850;12.928;2024-01-27T03:23:20;15.65;;;2.30;;
20729;SDS011;10526;50.850;12.928;2024-01-27T03:27:41;13.90;;;2.05;;
20729;SDS011;10526;50.850;12.928;2024-01-27T03:32:03;14.27;;;2.38;;
20729;SDS011;10526;50.850;12.928;2024-01-27T03:36:26;10.30;;;2.20;;
20729;SDS011;10526;50.850;12.928;2024-01-27T03:40:49;13.75;;;2.30;;
20729;SDS011;10526;50.850;12.928;2024-01-27T03:45:11;13.45;;;2.88;;
20729;SDS011;10526;50.850;12.928;2024-01-27T03:49:33;11.98;;;2.03;;
20729;SDS011;10526;50.850;12.928;2024-01-27T03:53:55;17.30;;;2.95;;
20729;SDS011;10526;50.850;12.928;2024-01-27T03:58:17;14.43;;;2.50;;
20729;SDS011;10526;50.850;12.928;2024-01-27T04:02:39;18.48;;;2.28;;
20729;SDS011;10526;50.850;12.928;2024-01-27T04:07:01;18.83;;;2.85;;
20729;SDS011;10526;50.850;12.928;2024-01-27T04:11:23;14.23;;;2.20;;
20729;SDS011;10526;50.850;12.928;2024-01-27T04:15:45;14.38;;;2.97;;
20729;SDS011;10526;50.850;12.928;2024-01-27T04:20:08;13.30;;;2.45;;
20729;SDS011;10526;50.850;12.928;2024-01-27T04:24:31;11.73;;;2.50;;
20729;SDS011;10526;50.850;12.928;2024-01-27T04:28:53;12.32;;;2.38;;
20729;SDS011;10526;50.850;12.928;2024-01-27T04:33:15;11.82;;;2.72;;
20729;SDS011;10526;50.850;12.928;2024-01-27T04:37:37;9.93;;;2.25;;
20729;SDS011;10526;50.850;12.928;2024-01-27T04:41:59;10.73;;;2.47;;
20729;SDS011;10526;50.850;12.928;2024-01-27T04:46:21;10.57;;;2.42;;
20729;SDS011;10526;50.850;12.928;2024-01-27T04:50:43;8.27;;;2.30;;
20729;SDS011;10526;50.850;12.928;2024-01-27T04:55:06;15.43;;;2.45;;
20729;SDS011;10526;50.850;12.928;2024-01-27T04:59:28;12.00;;;2.85;;
20729;SDS011;10526;50.850;12.928;2024-01-27T05:03:49;15.15;;;4.10;;
20729;SDS011;10526;50.850;12.928;2024-01-27T05:08:11;18.90;;;2.55;;
20729;SDS011;10526;50.850;12.928;2024-01-27T05:12:34;11.48;;;2.78;;
20729;SDS011;10526;50.850;12.928;2024-01-27T05:16:56;12.25;;;3.00;;
20729;SDS011;10526;50.850;12.928;2024-01-27T05:21:18;11.00;;;2.90;;
20729;SDS011;10526;50.850;12.928;2024-01-27T05:25:40;15.88;;;2.85;;
20729;SDS011;10526;50.850;12.928;2024-01-27T05:30:02;15.52;;;2.40;;
20729;SDS011;10526;50.850;12.928;2024-01-27T05:34:24;14.48;;;2.33;;
20729;SDS011;10526;50.850;12.928;2024-01-27T05:38:46;16.02;;;2.42;;
20729;SDS011;10526;50.850;12.928;2024-01-27T05:43:08;16.50;;;3.42;;
20729;SDS011;10526;50.850;12.928;2024-01-27T05:47:30;14.50;;;2.70;;
20729;SDS011;10526;50.850;12.928;2024-01-27T05:51:52;16.38;;;2.25;;
20729;SDS011;10526;50.850;12.928;2024-01-27T05:56:14;13.85;;;2.35;;
20729;SDS011;10526;50.850;12.928;2024-01-27T06:00:36;8.07;;;2.50;;
20729;SDS011;10526;50.850;12.928;2024-01-27T06:04:58;15.02;;;3.35;;
20729;SDS011;10526;50.850;12.928;2024-01-27T06:09:20;16.38;;;3.50;;
20729;SDS011;10526;50.850;12.928;2024-01-27T06:13:43;19.90;;;2.95;;
20729;SDS011;10526;50.850;12.928;2024-01-27T06:18:09;18.25;;;2.70;;
20729;SDS011;10526;50.850;12.928;2024-01-27T06:22:31;17.05;;;3.95;;
20729;SDS011;10526;50.850;12.928;2024-01-27T06:26:53;19.80;;;3.53;;
20729;SDS011;10526;50.850;12.928;2024-01-27T06:31:15;20.15;;;3.28;;
20729;SDS011;10526;50.850;12.928;2024-01-27T06:35:37;17.20;;;3.38;;
20729;SDS011;10526;50.850;12.928;2024-01-27T06:39:59;20.77;;;2.50;;
20729;SDS011;10526;50.850;12.928;2024-01-27T06:44:21;18.15;;;2.38;;
20729;SDS011;10526;50.850;12.928;2024-01-27T06:48:43;13.75;;;2.80;;
20729;SDS011;10526;50.850;12.928;2024-01-27T06:53:05;15.25;;;2.55;;
20729;SDS011;10526;50.850;12.928;2024-01-27T06:57:27;22.70;;;3.40;;
20729;SDS011;10526;50.850;12.928;2024-01-27T07:01:49;14.40;;;2.25;;
20729;SDS011;10526;50.850;12.928;2024-01-27T07:06:11;14.85;;;2.92;;
20729;SDS011;10526;50.850;12.928;2024-01-27T07:10:34;15.88;;;2.42;;
20729;SDS011;10526;50.850;12.928;2024-01-27T07:14:56;15.30;;;3.08;;
20729;SDS011;10526;50.850;12.928;2024-01-27T07:19:21;30.60;;;12.55;;
20729;SDS011;10526;50.850;12.928;2024-01-27T07:23:43;18.52;;;3.60;;
20729;SDS011;10526;50.850;12.928;2024-01-27T07:28:05;9.63;;;2.53;;
20729;SDS011;10526;50.850;12.928;2024-01-27T07:32:28;13.02;;;2.75;;
20729;SDS011;10526;50.850;12.928;2024-01-27T07:36:50;19.02;;;2.85;;
20729;SDS011;10526;50.850;12.928;2024-01-27T07:41:12;14.20;;;3.38;;
20729;SDS011;10526;50.850;12.928;2024-01-27T07:45:34;15.30;;;2.65;;
20729;SDS011;10526;50.850;12.928;2024-01-27T07:49:56;16.25;;;2.53;;
20729;SDS011;10526;50.850;12.928;2024-01-27T07:54:18;16.25;;;3.05;;
20729;SDS011;10526;50.850;12.928;2024-01-27T07:58:40;25.85;;;6.53;;
20729;SDS011;10526;50.850;12.928;2024-01-27T08:03:02;20.25;;;4.82;;
20729;SDS011;10526;50.850;12.928;2024-01-27T08:07:25;35.55;;;8.40;;
20729;SDS011;10526;50.850;12.928;2024-01-27T08:11:47;12.65;;;2.30;;
20729;SDS011;10526;50.850;12.928;2024-01-27T08:16:13;12.98;;;2.70;;
20729;SDS011;10526;50.850;12.928;2024-01-27T08:20:35;12.93;;;2.42;;
20729;SDS011;10526;50.850;12.928;2024-01-27T08:24:57;10.88;;;2.58;;
20729;SDS011;10526;50.850;12.928;2024-01-27T08:29:19;15.65;;;3.33;;
20729;SDS011;10526;50.850;12.928;2024-01-27T08:33:41;13.90;;;2.58;;
20729;SDS011;10526;50.850;12.928;2024-01-27T08:38:03;13.10;;;2.67;;
20729;SDS011;10526;50.850;12.928;2024-01-27T08:42:27;13.48;;;2.72;;
20729;SDS011;10526;50.850;12.928;2024-01-27T08:46:49;15.07;;;2.40;;
20729;SDS011;10526;50.850;12.928;2024-01-27T08:51:10;15.30;;;3.42;;
20729;SDS011;10526;50.850;12.928;2024-01-27T08:55:34;13.20;;;2.38;;
20729;SDS011;10526;50.850;12.928;2024-01-27T08:59:56;15.55;;;2.78;;
20729;SDS011;10526;50.850;12.928;2024-01-27T09:04:18;20.67;;;3.45;;
20729;SDS011;10526;50.850;12.928;2024-01-27T09:08:40;19.15;;;3.17;;
20729;SDS011;10526;50.850;12.928;2024-01-27T09:13:02;10.93;;;2.33;;
20729;SDS011;10526;50.850;12.928;2024-01-27T09:17:25;13.85;;;2.53;;
20729;SDS011;10526;50.850;12.928;2024-01-27T09:21:47;14.65;;;3.85;;
20729;SDS011;10526;50.850;12.928;2024-01-27T09:26:10;17.67;;;3.13;;
20729;SDS011;10526;50.850;12.928;2024-01-27T09:30:33;14.07;;;3.00;;
20729;SDS011;10526;50.850;12.928;2024-01-27T09:34:59;9.57;;;2.33;;
20729;SDS011;10526;50.850;12.928;2024-01-27T09:39:21;15.82;;;2.55;;
20729;SDS011;10526;50.850;12.928;2024-01-27T09:43:44;17.15;;;3.47;;
20729;SDS011;10526;50.850;12.928;2024-01-27T09:48:07;12.48;;;2.90;;
20729;SDS011;10526;50.850;12.928;2024-01-27T09:52:31;12.48;;;2.80;;
20729;SDS011;10526;50.850;12.928;2024-01-27T09:56:53;13.85;;;2.58;;
20729;SDS011;10526;50.850;12.928;2024-01-27T10:01:17;9.98;;;2.35;;
20729;SDS011;10526;50.850;12.928;2024-01-27T10:05:39;12.02;;;2.72;;
20729;SDS011;10526;50.850;12.928;2024-01-27T10:10:03;13.88;;;3.10;;
20729;SDS011;10526;50.850;12.928;2024-01-27T10:14:39;12.50;;;2.67;;
20729;SDS011;10526;50.850;12.928;2024-01-27T10:19:02;14.10;;;2.80;;
20729;SDS011;10526;50.850;12.928;2024-01-27T10:23:25;14.27;;;2.83;;
20729;SDS011;10526;50.850;12.928;2024-01-27T10:27:47;15.63;;;2.80;;
20729;SDS011;10526;50.850;12.928;2024-01-27T10:32:10;10.70;;;2.75;;
20729;SDS011;10526;50.850;12.928;2024-01-27T10:36:42;17.67;;;3.00;;
20729;SDS011;10526;50.850;12.928;2024-01-27T10:41:10;11.05;;;2.25;;
20729;SDS011;10526;50.850;12.928;2024-01-27T10:45:33;12.80;;;2.80;;
20729;SDS011;10526;50.850;12.928;2024-01-27T10:50:00;11.93;;;2.83;;
20729;SDS011;10526;50.850;12.928;2024-01-27T10:54:26;16.27;;;3.53;;
20729;SDS011;10526;50.850;12.928;2024-01-27T10:58:49;12.98;;;2.75;;
20729;SDS011;10526;50.850;12.928;2024-01-27T11:03:13;15.45;;;3.05;;
20729;SDS011;10526;50.850;12.928;2024-01-27T11:07:37;13.00;;;2.80;;
20729;SDS011;10526;50.850;12.928;2024-01-27T11:12:00;30.83;;;3.92;;
20729;SDS011;10526;50.850;12.928;2024-01-27T11:16:24;11.23;;;2.63;;
20729;SDS011;10526;50.850;12.928;2024-01-27T11:20:46;13.95;;;3.63;;
20729;SDS011;10526;50.850;12.928;2024-01-27T11:25:13;14.70;;;2.75;;
20729;SDS011;10526;50.850;12.928;2024-01-27T11:29:46;16.40;;;3.05;;
20729;SDS011;10526;50.850;12.928;2024-01-27T11:34:12;12.48;;;2.92;;
20729;SDS011;10526;50.850;12.928;2024-01-27T11:38:37;14.00;;;2.80;;
20729;SDS011;10526;50.850;12.928;2024-01-27T11:43:01;15.90;;;2.88;;
20729;SDS011;10526;50.850;12.928;2024-01-27T11:47:28;12.75;;;2.88;;
20729;SDS011;10526;50.850;12.928;2024-01-27T11:51:51;17.05;;;2.42;;
20729;SDS011;10526;50.850;12.928;2024-01-27T11:56:13;14.48;;;2.88;;
20729;SDS011;10526;50.850;12.928;2024-01-27T12:00:35;17.75;;;2.90;;
20729;SDS011;10526;50.850;12.928;2024-01-27T12:04:59;16.10;;;3.70;;
20729;SDS011;10526;50.850;12.928;2024-01-27T12:09:21;18.90;;;2.85;;
20729;SDS011;10526;50.850;12.928;2024-01-27T12:13:43;13.52;;;2.45;;
20729;SDS011;10526;50.850;12.928;2024-01-27T12:18:05;15.50;;;2.78;;
20729;SDS011;10526;50.850;12.928;2024-01-27T12:22:29;13.43;;;2.20;;
20729;SDS011;10526;50.850;12.928;2024-01-27T12:26:51;13.73;;;2.53;;
20729;SDS011;10526;50.850;12.928;2024-01-27T12:31:12;16.33;;;2.97;;
20729;SDS011;10526;50.850;12.928;2024-01-27T12:35:39;16.10;;;3.03;;
20729;SDS011;10526;50.850;12.928;2024-01-27T12:40:01;13.20;;;2.53;;
20729;SDS011;10526;50.850;12.928;2024-01-27T12:44:24;16.80;;;3.33;;
20729;SDS011;10526;50.850;12.928;2024-01-27T12:48:46;12.95;;;2.97;;
20729;SDS011;10526;50.850;12.928;2024-01-27T12:53:08;18.05;;;2.85;;
20729;SDS011;10526;50.850;12.928;2024-01-27T12:57:29;13.70;;;2.60;;
20729;SDS011;10526;50.850;12.928;2024-01-27T13:01:52;18.83;;;3.45;;
20729;SDS011;10526;50.850;12.928;2024-01-27T13:06:14;13.45;;;3.25;;
20729;SDS011;10526;50.850;12.928;2024-01-27T13:10:36;15.93;;;2.63;;
20729;SDS011;10526;50.850;12.928;2024-01-27T13:14:58;15.48;;;2.88;;
20729;SDS011;10526;50.850;12.928;2024-01-27T13:19:20;11.80;;;3.30;;
20729;SDS011;10526;50.850;12.928;2024-01-27T13:23:42;17.38;;;2.92;;
20729;SDS011;10526;50.850;12.928;2024-01-27T13:28:04;16.20;;;2.75;;
20729;SDS011;10526;50.850;12.928;2024-01-27T13:32:32;17.17;;;2.70;;
20729;SDS011;10526;50.850;12.928;2024-01-27T13:36:54;15.05;;;2.70;;
20729;SDS011;10526;50.850;12.928;2024-01-27T13:41:20;14.30;;;2.80;;
20729;SDS011;10526;50.850;12.928;2024-01-27T13:45:42;17.10;;;2.40;;
20729;SDS011;10526;50.850;12.928;2024-01-27T13:50:04;15.60;;;2.95;;
20729;SDS011;10526;50.850;12.928;2024-01-27T13:54:28;13.65;;;2.60;;
20729;SDS011;10526;50.850;12.928;2024-01-27T13:58:50;15.40;;;3.03;;
20729;SDS011;10526;50.850;12.928;2024-01-27T14:03:13;14.13;;;2.50;;
20729;SDS011;10526;50.850;12.928;2024-01-27T14:07:35;12.02;;;2.28;;
20729;SDS011;10526;50.850;12.928;2024-01-27T14:11:57;16.58;;;3.47;;
20729;SDS011;10526;50.850;12.928;2024-01-27T14:16:19;16.10;;;2.92;;
20729;SDS011;10526;50.850;12.928;2024-01-27T14:20:42;16.20;;;3.22;;
20729;SDS011;10526;50.850;12.928;2024-01-27T14:25:04;17.67;;;2.95;;
20729;SDS011;10526;50.850;12.928;2024-01-27T14:29:27;17.55;;;2.72;;
20729;SDS011;10526;50.850;12.928;2024-01-27T14:33:49;12.38;;;2.75;;
20729;SDS011;10526;50.850;12.928;2024-01-27T14:38:11;13.80;;;2.58;;
20729;SDS011;10526;50.850;12.928;2024-01-27T14:42:34;8.35;;;2.20;;
20729;SDS011;10526;50.850;12.928;2024-01-27T14:46:57;10.20;;;2.70;;
20729;SDS011;10526;50.850;12.928;2024-01-27T14:51:19;13.68;;;3.13;;
20729;SDS011;10526;50.850;12.928;2024-01-27T14:55:43;14.60;;;2.67;;
20729;SDS011;10526;50.850;12.928;2024-01-27T15:00:06;12.52;;;2.50;;
20729;SDS011;10526;50.850;12.928;2024-01-27T15:04:29;21.52;;;3.15;;
20729;SDS011;10526;50.850;12.928;2024-01-27T15:08:51;16.02;;;2.58;;
20729;SDS011;10526;50.850;12.928;2024-01-27T15:13:14;15.50;;;2.85;;
20729;SDS011;10526;50.850;12.928;2024-01-27T15:17:38;12.90;;;2.70;;
20729;SDS011;10526;50.850;12.928;2024-01-27T15:22:00;14.50;;;2.83;;
20729;SDS011;10526;50.850;12.928;2024-01-27T15:26:22;15.38;;;2.70;;
20729;SDS011;10526;50.850;12.928;2024-01-27T15:30:44;15.23;;;2.97;;
20729;SDS011;10526;50.850;12.928;2024-01-27T15:35:09;13.80;;;2.83;;
20729;SDS011;10526;50.850;12.928;2024-01-27T15:39:31;18.55;;;2.80;;
20729;SDS011;10526;50.850;12.928;2024-01-27T15:43:53;13.60;;;2.72;;
20729;SDS011;10526;50.850;12.928;2024-01-27T15:48:15;17.33;;;3.13;;
20729;SDS011;10526;50.850;12.928;2024-01-27T15:52:38;10.70;;;2.85;;
20729;SDS011;10526;50.850;12.928;2024-01-27T15:56:59;15.23;;;3.70;;
20729;SDS011;10526;50.850;12.928;2024-01-27T16:01:21;8.70;;;2.75;;
20729;SDS011;10526;50.850;12.928;2024-01-27T16:05:44;18.48;;;3.50;;
20729;SDS011;10526;50.850;12.928;2024-01-27T16:10:06;16.88;;;4.30;;
20729;SDS011;10526;50.850;12.928;2024-01-27T16:14:29;17.00;;;3.10;;
20729;SDS011;10526;50.850;12.928;2024-01-27T16:18:51;18.88;;;4.07;;
20729;SDS011;10526;50.850;12.928;2024-01-27T16:23:13;20.83;;;4.13;;
20729;SDS011;10526;50.850;12.928;2024-01-27T16:27:35;14.38;;;3.70;;
20729;SDS011;10526;50.850;12.928;2024-01-27T16:31:57;19.23;;;3.42;;
20729;SDS011;10526;50.850;12.928;2024-01-27T16:36:19;16.02;;;3.78;;
20729;SDS011;10526;50.850;12.928;2024-01-27T16:40:42;15.70;;;3.78;;
20729;SDS011;10526;50.850;12.928;2024-01-27T16:45:04;20.65;;;4.95;;
20729;SDS011;10526;50.850;12.928;2024-01-27T16:49:31;15.60;;;4.75;;
20729;SDS011;10526;50.850;12.928;2024-01-27T16:53:53;17.20;;;4.10;;
20729;SDS011;10526;50.850;12.928;2024-01-27T16:58:14;15.07;;;4.07;;
20729;SDS011;10526;50.850;12.928;2024-01-27T17:02:36;24.80;;;4.43;;
20729;SDS011;10526;50.850;12.928;2024-01-27T17:06:58;24.08;;;4.68;;
20729;SDS011;10526;50.850;12.928;2024-01-27T17:11:21;18.40;;;5.15;;
20729;SDS011;10526;50.850;12.928;2024-01-27T17:15:42;18.83;;;4.80;;
20729;SDS011;10526;50.850;12.928;2024-01-27T17:20:07;21.00;;;5.05;;
20729;SDS011;10526;50.850;12.928;2024-01-27T17:24:29;18.92;;;4.82;;
20729;SDS011;10526;50.850;12.928;2024-01-27T17:28:51;19.20;;;4.75;;
20729;SDS011;10526;50.850;12.928;2024-01-27T17:33:13;22.40;;;5.20;;
20729;SDS011;10526;50.850;12.928;2024-01-27T17:37:35;25.60;;;5.32;;
20729;SDS011;10526;50.850;12.928;2024-01-27T17:41:57;19.55;;;6.13;;
20729;SDS011;10526;50.850;12.928;2024-01-27T17:46:20;25.92;;;6.25;;
20729;SDS011;10526;50.850;12.928;2024-01-27T17:50:41;17.10;;;5.93;;
20729;SDS011;10526;50.850;12.928;2024-01-27T17:55:04;19.70;;;6.18;;
20729;SDS011;10526;50.850;12.928;2024-01-27T17:59:27;30.10;;;6.78;;
20729;SDS011;10526;50.850;12.928;2024-01-27T18:03:49;58.92;;;19.33;;
20729;SDS011;10526;50.850;12.928;2024-01-27T18:08:11;43.67;;;20.85;;
20729;SDS011;10526;50.850;12.928;2024-01-27T18:12:33;29.75;;;9.30;;
20729;SDS011;10526;50.850;12.928;2024-01-27T18:16:57;26.17;;;9.27;;
20729;SDS011;10526;50.850;12.928;2024-01-27T18:21:19;27.10;;;7.43;;
20729;SDS011;10526;50.850;12.928;2024-01-27T18:25:41;29.88;;;8.15;;
20729;SDS011;10526;50.850;12.928;2024-01-27T18:30:03;26.27;;;8.55;;
20729;SDS011;10526;50.850;12.928;2024-01-27T18:34:29;25.10;;;8.20;;
20729;SDS011;10526;50.850;12.928;2024-01-27T18:38:51;25.95;;;7.80;;
20729;SDS011;10526;50.850;12.928;2024-01-27T18:43:15;21.73;;;8.27;;
20729;SDS011;10526;50.850;12.928;2024-01-27T18:47:37;20.80;;;7.80;;
20729;SDS011;10526;50.850;12.928;2024-01-27T18:52:04;20.67;;;6.97;;
20729;SDS011;10526;50.850;12.928;2024-01-27T18:56:27;25.85;;;7.53;;
20729;SDS011;10526;50.850;12.928;2024-01-27T19:00:49;29.55;;;8.45;;
20729;SDS011;10526;50.850;12.928;2024-01-27T19:05:12;23.33;;;7.97;;
20729;SDS011;10526;50.850;12.928;2024-01-27T19:09:36;29.27;;;7.57;;
20729;SDS011;10526;50.850;12.928;2024-01-27T19:13:58;27.17;;;7.70;;
20729;SDS011;10526;50.850;12.928;2024-01-27T19:18:23;28.45;;;9.63;;
20729;SDS011;10526;50.850;12.928;2024-01-27T19:22:46;22.58;;;8.90;;
20729;SDS011;10526;50.850;12.928;2024-01-27T19:27:11;31.20;;;9.32;;
20729;SDS011;10526;50.850;12.928;2024-01-27T19:31:33;23.30;;;8.70;;
20729;SDS011;10526;50.850;12.928;2024-01-27T19:35:55;24.55;;;9.00;;
20729;SDS011;10526;50.850;12.928;2024-01-27T19:40:17;23.92;;;9.43;;
20729;SDS011;10526;50.850;12.928;2024-01-27T19:44:38;26.52;;;11.23;;
20729;SDS011;10526;50.850;12.928;2024-01-27T19:49:00;26.45;;;10.88;;
20729;SDS011;10526;50.850;12.928;2024-01-27T19:53:22;28.13;;;11.77;;
20729;SDS011;10526;50.850;12.928;2024-01-27T19:57:45;30.92;;;12.25;;
20729;SDS011;10526;50.850;12.928;2024-01-27T20:02:07;25.35;;;9.88;;
20729;SDS011;10526;50.850;12.928;2024-01-27T20:06:30;19.77;;;8.77;;
20729;SDS011;10526;50.850;12.928;2024-01-27T20:10:52;26.90;;;10.27;;
20729;SDS011;10526;50.850;12.928;2024-01-27T20:15:14;28.17;;;9.48;;
20729;SDS011;10526;50.850;12.928;2024-01-27T20:19:38;27.60;;;9.85;;
20729;SDS011;10526;50.850;12.928;2024-01-27T20:24:00;32.30;;;11.07;;
20729;SDS011;10526;50.850;12.928;2024-01-27T20:28:23;34.47;;;9.45;;
20729;SDS011;10526;50.850;12.928;2024-01-27T20:32:46;22.10;;;8.85;;
20729;SDS011;10526;50.850;12.928;2024-01-27T20:37:09;29.13;;;10.82;;
20729;SDS011;10526;50.850;12.928;2024-01-27T20:41:31;31.08;;;10.43;;
20729;SDS011;10526;50.850;12.928;2024-01-27T20:45:54;32.45;;;10.43;;
20729;SDS011;10526;50.850;12.928;2024-01-27T20:50:16;26.38;;;9.98;;
20729;SDS011;10526;50.850;12.928;2024-01-27T20:54:38;39.88;;;12.68;;
20729;SDS011;10526;50.850;12.928;2024-01-27T20:59:00;27.52;;;10.35;;
20729;SDS011;10526;50.850;12.928;2024-01-27T21:03:23;33.45;;;9.13;;
20729;SDS011;10526;50.850;12.928;2024-01-27T21:07:45;25.33;;;9.68;;
20729;SDS011;10526;50.850;12.928;2024-01-27T21:12:07;24.48;;;9.32;;
20729;SDS011;10526;50.850;12.928;2024-01-27T21:16:30;30.13;;;9.60;;
20729;SDS011;10526;50.850;12.928;2024-01-27T21:20:54;25.90;;;8.00;;
20729;SDS011;10526;50.850;12.928;2024-01-27T21:25:18;30.30;;;9.18;;
20729;SDS011;10526;50.850;12.928;2024-01-27T21:29:40;31.25;;;10.07;;
20729;SDS011;10526;50.850;12.928;2024-01-27T21:34:02;33.90;;;9.63;;
20729;SDS011;10526;50.850;12.928;2024-01-27T21:38:25;37.20;;;10.15;;
20729;SDS011;10526;50.850;12.928;2024-01-27T21:42:47;26.05;;;10.27;;
20729;SDS011;10526;50.850;12.928;2024-01-27T21:47:09;27.27;;;8.73;;
20729;SDS011;10526;50.850;12.928;2024-01-27T21:51:31;37.33;;;9.77;;
20729;SDS011;10526;50.850;12.928;2024-01-27T21:55:54;38.08;;;10.35;;
20729;SDS011;10526;50.850;12.928;2024-01-27T22:00:16;30.05;;;10.63;;
20729;SDS011;10526;50.850;12.928;2024-01-27T22:04:38;39.72;;;11.80;;
20729;SDS011;10526;50.850;12.928;2024-01-27T22:09:00;29.02;;;9.85;;
20729;SDS011;10526;50.850;12.928;2024-01-27T22:13:23;29.02;;;9.85;;
20729;SDS011;10526;50.850;12.928;2024-01-27T22:17:45;28.67;;;9.88;;
20729;SDS011;10526;50.850;12.928;2024-01-27T22:22:07;26.70;;;10.27;;
20729;SDS011;10526;50.850;12.928;2024-01-27T22:26:29;30.52;;;10.00;;
20729;SDS011;10526;50.850;12.928;2024-01-27T22:30:51;30.95;;;11.32;;
20729;SDS011;10526;50.850;12.928;2024-01-27T22:35:13;28.90;;;10.50;;
20729;SDS011;10526;50.850;12.928;2024-01-27T22:39:38;30.33;;;10.60;;
20729;SDS011;10526;50.850;12.928;2024-01-27T22:44:00;33.35;;;11.45;;
20729;SDS011;10526;50.850;12.928;2024-01-27T22:48:22;24.63;;;9.65;;
20729;SDS011;10526;50.850;12.928;2024-01-27T22:52:44;30.27;;;11.98;;
20729;SDS011;10526;50.850;12.928;2024-01-27T22:57:06;26.85;;;11.48;;
20729;SDS011;10526;50.850;12.928;2024-01-27T23:01:29;31.27;;;11.40;;
20729;SDS011;10526;50.850;12.928;2024-01-27T23:05:51;25.58;;;10.00;;
20729;SDS011;10526;50.850;12.928;2024-01-27T23:10:15;28.10;;;10.63;;
20729;SDS011;10526;50.850;12.928;2024-01-27T23:14:37;27.35;;;9.15;;
20729;SDS011;10526;50.850;12.928;2024-01-27T23:19:00;32.00;;;9.55;;
20729;SDS011;10526;50.850;12.928;2024-01-27T23:23:23;35.03;;;9.18;;
20729;SDS011;10526;50.850;12.928;2024-01-27T23:27:46;24.48;;;9.60;;
20729;SDS011;10526;50.850;12.928;2024-01-27T23:32:08;32.13;;;9.35;;
20729;SDS011;10526;50.850;12.928;2024-01-27T23:36:30;26.98;;;9.63;;
20729;SDS011;10526;50.850;12.928;2024-01-27T23:40:52;26.08;;;8.90;;
20729;SDS011;10526;50.850;12.928;2024-01-27T23:45:14;24.42;;;8.50;;
20729;SDS011;10526;50.850;12.928;2024-01-27T23:49:36;22.83;;;9.85;;
20729;SDS011;10526;50.850;12.928;2024-01-27T23:53:58;22.45;;;8.38;;
20729;SDS011;10526;50.850;12.928;2024-01-27T23:58:20;24.23;;;8.93;;
